Terminal Aerodrome Forecast
Issued by NWS

Home | Current Version | Previous Version | Text Only | Print | Product List | Glossary On
Versions: 1 2 3 4 5 6 7 8 9 10 11 12 13 14 15 16 17 18 19
416
FTAK31 PAJN 082325
TAFAJN
TAF
PAJN 082325Z 0900/0924 VRB03KT P6SM SKC
     FM090800 VRB02KT P6SM SKC WS020/04025KT
     FM091600 08006KT P6SM SKC WS020/04030KT=

USA.gov is the U.S. government's official web portal to all federal, state and local government web resources and services.